Time;durP1;ratioP1;P1;durP2;ratioP2;P2;SDS_P1;SDS_P2;PMS_P1;PMS_P2;Temp;Humidity;BMP_temperature;BMP_pressure;BME280_temperature;BME280_humidity;BME280_pressure;Samples;Min_cycle;Max_cycle;Signal;HPM_P1;HPM_P2
2021/10/18 00:01:50;;;;;;;0.22;0.22;;;11.20;99.90;;;;;;5057964;28;20035;-72
2021/10/18 00:04:15;;;;;;;0.73;0.73;;;11.20;99.90;;;;;;5066170;28;20269;-71
2021/10/18 00:06:41;;;;;;;0.95;0.82;;;11.20;99.90;;;;;;5064067;28;20055;-71
2021/10/18 00:09:07;;;;;;;0.20;0.20;;;11.30;99.90;;;;;;5058904;28;20479;-72
2021/10/18 00:11:32;;;;;;;0.90;0.40;;;11.20;99.90;;;;;;5061742;28;20024;-72
2021/10/18 00:13:58;;;;;;;7.78;1.25;;;11.20;99.90;;;;;;5063213;28;20036;-72
2021/10/18 00:16:23;;;;;;;0.50;0.50;;;11.30;99.90;;;;;;5054148;28;20024;-72
2021/10/18 00:18:49;;;;;;;1.25;0.90;;;11.20;99.90;;;;;;5051734;28;20032;-71
2021/10/18 00:21:15;;;;;;;0.73;0.73;;;11.20;99.90;;;;;;5067920;28;20036;-72
2021/10/18 00:23:40;;;;;;;0.30;0.30;;;11.20;99.90;;;;;;5057061;28;20454;-71
2021/10/18 00:26:06;;;;;;;0.47;0.47;;;11.20;99.90;;;;;;5056571;28;20554;-71
2021/10/18 00:28:31;;;;;;;0.20;0.20;;;11.20;99.90;;;;;;5059552;28;20029;-71
2021/10/18 00:30:57;;;;;;;0.30;0.30;;;11.30;99.90;;;;;;5053305;28;20029;-72
2021/10/18 00:33:22;;;;;;;3.50;1.00;;;11.20;99.90;;;;;;5058227;28;20040;-71
2021/10/18 00:35:49;;;;;;;0.10;0.10;;;11.20;99.90;;;;;;5068270;28;20025;-71
2021/10/18 00:38:14;;;;;;;0.20;0.20;;;11.30;99.90;;;;;;5059556;28;20598;-71
2021/10/18 00:40:40;;;;;;;1.80;1.65;;;11.20;99.90;;;;;;5058646;28;20025;-72
2021/10/18 00:43:06;;;;;;;0.80;0.68;;;11.20;99.90;;;;;;5056824;28;20197;-71
2021/10/18 00:45:32;;;;;;;5.25;0.68;;;11.20;99.90;;;;;;5068614;28;20029;-71
2021/10/18 00:47:58;;;;;;;0.30;0.30;;;11.30;99.90;;;;;;5054741;28;20123;-71
2021/10/18 00:50:24;;;;;;;0.28;0.28;;;11.30;99.90;;;;;;5062781;28;20400;-71
2021/10/18 00:52:51;;;;;;;0.47;0.47;;;11.30;99.90;;;;;;5049457;28;20480;-72
2021/10/18 00:55:17;;;;;;;0.20;0.20;;;11.30;99.90;;;;;;5057215;28;20032;-70
2021/10/18 00:57:43;;;;;;;7.57;2.75;;;11.20;99.90;;;;;;5068208;28;20052;-69
2021/10/18 01:00:09;;;;;;;1.88;1.55;;;11.20;99.90;;;;;;5056730;28;20483;-70
2021/10/18 01:02:36;;;;;;;14.90;1.55;;;11.20;99.90;;;;;;5055431;28;20074;-70
2021/10/18 01:05:02;;;;;;;1.55;0.55;;;11.20;99.90;;;;;;5061693;28;20037;-71
2021/10/18 01:07:28;;;;;;;0.40;0.40;;;11.20;99.90;;;;;;5062798;28;20027;-70
2021/10/18 01:09:54;;;;;;;0.32;0.32;;;11.20;99.90;;;;;;5063300;28;20468;-70
2021/10/18 01:12:20;;;;;;;0.47;0.47;;;11.20;99.90;;;;;;5060641;28;20510;-70
2021/10/18 01:14:45;;;;;;;0.28;0.28;;;11.20;99.90;;;;;;5067987;28;20027;-70
2021/10/18 01:17:11;;;;;;;1.85;1.75;;;11.20;99.90;;;;;;5064807;28;20544;-70
2021/10/18 01:19:36;;;;;;;4.90;1.20;;;11.20;99.90;;;;;;5062513;28;20035;-70
2021/10/18 01:22:03;;;;;;;0.32;0.32;;;11.20;99.90;;;;;;5058692;28;20028;-70
2021/10/18 01:24:30;;;;;;;1.02;0.93;;;11.20;99.90;;;;;;5055589;28;20121;-70
2021/10/18 01:26:56;;;;;;;1.02;0.57;;;11.20;99.90;;;;;;5058977;28;20037;-70
2021/10/18 01:29:22;;;;;;;1.13;0.90;;;11.20;99.90;;;;;;5067722;28;20031;-69
2021/10/18 01:31:47;;;;;;;0.85;0.70;;;11.20;99.90;;;;;;5057067;28;20376;-70
2021/10/18 01:34:13;;;;;;;0.52;0.52;;;11.20;99.90;;;;;;5065508;28;20058;-70
2021/10/18 01:36:39;;;;;;;0.80;0.80;;;11.20;99.90;;;;;;5054920;28;20428;-70
2021/10/18 01:39:04;;;;;;;0.55;0.55;;;11.30;99.90;;;;;;5064785;28;20040;-70
2021/10/18 01:41:30;;;;;;;0.95;0.63;;;11.30;99.90;;;;;;5067146;28;20036;-70
2021/10/18 01:43:55;;;;;;;1.85;1.27;;;11.30;99.90;;;;;;5057227;28;20053;-70
2021/10/18 01:46:21;;;;;;;1.40;0.65;;;11.30;99.90;;;;;;5063733;28;20033;-70
2021/10/18 01:48:46;;;;;;;0.45;0.45;;;11.30;99.90;;;;;;5059214;28;20044;-70
2021/10/18 01:51:12;;;;;;;0.40;0.40;;;11.30;99.90;;;;;;5052641;28;20043;-70
2021/10/18 01:53:37;;;;;;;0.35;0.35;;;11.30;99.90;;;;;;5067077;28;20444;-70
2021/10/18 01:56:04;;;;;;;0.40;0.30;;;11.30;99.90;;;;;;5057433;28;20021;-69
2021/10/18 01:58:31;;;;;;;0.47;0.47;;;11.30;99.90;;;;;;5067839;28;20075;-70
2021/10/18 02:00:58;;;;;;;0.50;0.50;;;11.30;99.90;;;;;;5055944;28;20040;-70
2021/10/18 02:03:24;;;;;;;0.25;0.25;;;11.30;99.90;;;;;;5064846;28;20880;-70
2021/10/18 02:05:49;;;;;;;0.40;0.40;;;11.30;99.90;;;;;;5066675;28;20029;-70
2021/10/18 02:08:15;;;;;;;0.50;0.50;;;11.30;99.90;;;;;;5066863;28;20075;-71
2021/10/18 02:10:40;;;;;;;0.40;0.40;;;11.30;99.90;;;;;;5054274;28;20029;-71
2021/10/18 02:13:06;;;;;;;1.98;0.93;;;11.20;99.90;;;;;;5062887;28;20167;-71
2021/10/18 02:15:31;;;;;;;2.33;0.65;;;11.20;99.90;;;;;;5059768;28;20081;-71
2021/10/18 02:17:57;;;;;;;0.22;0.22;;;11.30;99.90;;;;;;5064048;28;20033;-70
2021/10/18 02:20:22;;;;;;;0.90;0.60;;;11.20;99.90;;;;;;5057815;28;20118;-71
2021/10/18 02:22:48;;;;;;;0.30;0.30;;;11.20;99.90;;;;;;5054812;28;20496;-71
2021/10/18 02:28:29;;;;;;;0.28;0.28;;;11.30;99.90;;;;;;5051007;28;20158;-70
2021/10/18 02:30:55;;;;;;;0.60;0.60;;;11.30;99.90;;;;;;5065764;28;20028;-70
2021/10/18 02:33:21;;;;;;;0.30;0.20;;;11.30;99.90;;;;;;5063796;28;20025;-70
2021/10/18 02:35:46;;;;;;;1.33;0.75;;;11.30;99.90;;;;;;5064058;28;20031;-70
2021/10/18 02:38:12;;;;;;;16.30;1.38;;;11.30;99.90;;;;;;5065993;28;20024;-71
2021/10/18 02:40:37;;;;;;;2.30;0.60;;;11.30;99.90;;;;;;5065175;28;20027;-70
2021/10/18 02:43:03;;;;;;;16.35;0.93;;;11.30;99.90;;;;;;5057551;28;20086;-71
2021/10/18 02:45:28;;;;;;;0.98;0.93;;;11.30;99.90;;;;;;5065242;28;20544;-70
2021/10/18 02:47:54;;;;;;;0.63;0.50;;;11.30;99.90;;;;;;5051598;28;20029;-71
2021/10/18 02:50:19;;;;;;;1.95;1.20;;;11.30;99.90;;;;;;5066841;28;20064;-70
2021/10/18 02:52:45;;;;;;;1.65;0.65;;;11.30;99.90;;;;;;5057645;28;20648;-71
2021/10/18 02:55:10;;;;;;;0.35;0.35;;;11.30;99.90;;;;;;5059024;28;20028;-70
2021/10/18 02:57:36;;;;;;;0.90;0.47;;;11.30;99.90;;;;;;5065145;28;20570;-70
2021/10/18 03:00:03;;;;;;;0.40;0.40;;;11.30;99.90;;;;;;5051649;28;20052;-71
2021/10/18 03:02:28;;;;;;;1.38;1.27;;;11.30;99.90;;;;;;5057359;28;20020;-70
2021/10/18 03:04:54;;;;;;;1.35;0.73;;;11.30;99.90;;;;;;5063686;28;20043;-70
2021/10/18 03:07:21;;;;;;;1.00;0.63;;;11.20;99.90;;;;;;5061073;28;20029;-70
2021/10/18 03:09:47;;;;;;;0.20;0.20;;;11.30;99.90;;;;;;5067159;28;20039;-70
2021/10/18 03:12:13;;;;;;;1.55;0.57;;;11.30;99.90;;;;;;5059489;28;20475;-70
2021/10/18 03:14:38;;;;;;;0.25;0.25;;;11.30;99.90;;;;;;5064597;28;20073;-70
2021/10/18 03:17:04;;;;;;;0.20;0.20;;;11.30;99.90;;;;;;5065117;28;20388;-70
2021/10/18 03:19:29;;;;;;;0.80;0.80;;;11.30;99.90;;;;;;5061418;28;20027;-71
2021/10/18 03:21:54;;;;;;;0.65;0.65;;;11.20;99.90;;;;;;5062831;28;20135;-70
2021/10/18 03:24:20;;;;;;;0.35;0.35;;;11.20;99.90;;;;;;5066329;28;20075;-70
2021/10/18 03:26:45;;;;;;;0.30;0.30;;;11.20;99.90;;;;;;5038994;28;20029;-70
2021/10/18 03:29:11;;;;;;;0.20;0.20;;;11.20;99.90;;;;;;5060467;28;20494;-70
2021/10/18 03:31:36;;;;;;;0.57;0.50;;;11.20;99.90;;;;;;5058626;28;20029;-71
2021/10/18 03:34:02;;;;;;;0.47;0.47;;;11.20;99.90;;;;;;5068384;28;20035;-70
2021/10/18 03:36:27;;;;;;;0.00;0.00;;;11.30;99.90;;;;;;5058813;28;20385;-70
2021/10/18 03:38:53;;;;;;;0.38;0.38;;;11.30;99.90;;;;;;5069573;28;20025;-70
2021/10/18 03:41:18;;;;;;;0.30;0.30;;;11.30;99.90;;;;;;5068150;28;20016;-71
2021/10/18 03:43:44;;;;;;;0.98;0.38;;;11.30;99.90;;;;;;5067554;28;20327;-70
2021/10/18 03:46:10;;;;;;;0.43;0.43;;;11.30;99.90;;;;;;5062402;28;20505;-70
2021/10/18 03:48:35;;;;;;;1.75;0.30;;;11.30;99.90;;;;;;5066206;28;20039;-70
2021/10/18 03:51:00;;;;;;;0.90;0.57;;;11.30;99.90;;;;;;5068722;28;20024;-70
2021/10/18 03:53:26;;;;;;;0.30;0.30;;;11.30;99.90;;;;;;5067330;28;20052;-70
2021/10/18 03:55:51;;;;;;;0.10;0.10;;;11.30;99.90;;;;;;5063929;28;20057;-70
2021/10/18 03:58:17;;;;;;;0.20;0.20;;;11.30;99.90;;;;;;5069811;28;20021;-70
2021/10/18 04:00:43;;;;;;;0.63;0.30;;;11.30;99.90;;;;;;5065630;28;20029;-70
2021/10/18 04:03:08;;;;;;;1.02;1.00;;;11.30;99.90;;;;;;5065262;28;20064;-70
2021/10/18 04:05:34;;;;;;;0.22;0.22;;;11.30;99.90;;;;;;5061560;28;20480;-70
2021/10/18 04:07:59;;;;;;;0.47;0.47;;;11.30;99.90;;;;;;5060353;28;20032;-70
2021/10/18 04:10:25;;;;;;;0.95;0.47;;;11.30;99.90;;;;;;5064082;28;20392;-69
2021/10/18 04:12:50;;;;;;;0.10;0.10;;;11.30;99.90;;;;;;5054834;28;20115;-71
2021/10/18 04:15:16;;;;;;;0.43;0.43;;;11.30;99.90;;;;;;5068549;28;20024;-70
2021/10/18 04:17:42;;;;;;;0.30;0.30;;;11.30;99.90;;;;;;5062057;28;20033;-70
2021/10/18 04:20:08;;;;;;;0.20;0.20;;;11.30;99.90;;;;;;5054426;28;20076;-70
2021/10/18 04:22:34;;;;;;;0.22;0.22;;;11.30;99.90;;;;;;5058565;28;20503;-70
2021/10/18 04:24:59;;;;;;;2.40;1.02;;;11.30;99.90;;;;;;5064496;28;20105;-70
2021/10/18 04:27:25;;;;;;;0.43;0.43;;;11.30;99.90;;;;;;5056045;28;20163;-70
2021/10/18 04:29:52;;;;;;;0.30;0.28;;;11.30;99.90;;;;;;5058705;28;20487;-69
2021/10/18 04:32:17;;;;;;;0.40;0.40;;;11.30;99.90;;;;;;5062708;28;20029;-70
2021/10/18 04:34:43;;;;;;;0.40;0.25;;;11.30;99.90;;;;;;5058863;28;20024;-69
2021/10/18 04:37:09;;;;;;;1.30;0.95;;;11.30;99.90;;;;;;5066204;28;20420;-70
2021/10/18 04:39:35;;;;;;;0.75;0.65;;;11.20;99.90;;;;;;5060845;28;20017;-70
2021/10/18 04:42:00;;;;;;;0.70;0.60;;;11.20;99.90;;;;;;5059846;28;20029;-70
2021/10/18 04:44:26;;;;;;;0.13;0.13;;;11.20;99.90;;;;;;5069567;28;20402;-72
2021/10/18 04:46:51;;;;;;;0.28;0.28;;;11.20;99.90;;;;;;5066738;28;20040;-69
2021/10/18 04:49:17;;;;;;;0.10;0.10;;;11.20;99.90;;;;;;5053141;28;20043;-70
2021/10/18 04:51:42;;;;;;;1.08;0.75;;;11.20;99.90;;;;;;5061225;28;20074;-70
2021/10/18 04:54:08;;;;;;;0.32;0.32;;;11.20;99.90;;;;;;5059372;28;20021;-70
2021/10/18 04:56:33;;;;;;;0.10;0.10;;;11.20;99.90;;;;;;5056501;28;20468;-70
2021/10/18 04:58:59;;;;;;;1.55;0.52;;;11.20;99.90;;;;;;5067170;28;20026;-70
2021/10/18 05:01:24;;;;;;;0.43;0.43;;;11.20;99.90;;;;;;5061554;28;20021;-70
2021/10/18 05:03:50;;;;;;;0.70;0.38;;;11.20;99.90;;;;;;5067261;28;20032;-72
2021/10/18 05:06:15;;;;;;;0.17;0.17;;;11.20;99.90;;;;;;5064020;28;20691;-72
2021/10/18 05:08:41;;;;;;;0.85;0.47;;;11.10;99.90;;;;;;5066379;28;20044;-73
2021/10/18 05:11:06;;;;;;;3.13;1.88;;;11.10;99.90;;;;;;5064637;28;20124;-69
2021/10/18 05:13:32;;;;;;;1.17;0.50;;;11.10;99.90;;;;;;5057820;28;20398;-72
2021/10/18 05:15:57;;;;;;;0.57;0.40;;;11.10;99.90;;;;;;5065055;28;20032;-72
2021/10/18 05:18:23;;;;;;;0.05;0.05;;;11.00;99.90;;;;;;5060382;28;20101;-69
2021/10/18 05:20:50;;;;;;;0.10;0.10;;;11.00;99.90;;;;;;5055903;28;20104;-72
2021/10/18 05:23:16;;;;;;;0.08;0.08;;;10.90;99.90;;;;;;5062568;28;20052;-72
2021/10/18 05:25:42;;;;;;;0.15;0.15;;;10.90;99.90;;;;;;5064071;28;20033;-72
2021/10/18 05:28:09;;;;;;;0.35;0.30;;;10.80;99.90;;;;;;5064592;28;20036;-72
2021/10/18 05:30:35;;;;;;;0.10;0.10;;;10.80;99.90;;;;;;5057904;28;20029;-72
2021/10/18 05:33:01;;;;;;;0.20;0.20;;;10.80;99.90;;;;;;5056669;28;20064;-72
2021/10/18 05:35:26;;;;;;;0.25;0.25;;;10.80;99.90;;;;;;5065763;28;20094;-72
2021/10/18 05:37:52;;;;;;;0.30;0.30;;;10.70;99.90;;;;;;5062733;28;20399;-72
2021/10/18 05:40:19;;;;;;;0.17;0.17;;;10.70;99.90;;;;;;5065461;28;20021;-72
2021/10/18 05:42:45;;;;;;;0.70;0.70;;;10.70;99.90;;;;;;5067143;28;20032;-72
2021/10/18 05:45:11;;;;;;;0.55;0.35;;;10.60;99.90;;;;;;5056976;28;20040;-71
2021/10/18 05:47:53;;;;;;;1.13;0.73;;;10.60;99.90;;;;;;5062543;28;20504;-72
2021/10/18 05:50:19;;;;;;;0.38;0.38;;;10.50;99.90;;;;;;5056418;28;20025;-70
2021/10/18 05:52:45;;;;;;;0.52;0.52;;;10.50;99.90;;;;;;5047102;28;20164;-70
2021/10/18 05:55:10;;;;;;;0.88;0.55;;;10.40;99.90;;;;;;5057544;28;20036;-70
2021/10/18 05:58:06;;;;;;;0.38;0.38;;;10.40;99.90;;;;;;5066551;28;20052;-70
2021/10/18 06:00:40;;;;;;;0.77;0.68;;;10.30;99.90;;;;;;5037499;28;20123;-70
2021/10/18 06:03:07;;;;;;;0.20;0.20;;;10.30;99.90;;;;;;5068619;28;20051;-70
2021/10/18 06:05:42;;;;;;;0.88;0.63;;;10.30;99.90;;;;;;5056616;28;20040;-69
2021/10/18 06:08:07;;;;;;;0.30;0.28;;;10.30;99.90;;;;;;5059323;28;20093;-71
2021/10/18 06:10:33;;;;;;;0.95;0.68;;;10.30;99.90;;;;;;5060721;28;20017;-71
2021/10/18 06:12:59;;;;;;;0.57;0.45;;;10.40;99.90;;;;;;5059370;28;20036;-72
2021/10/18 06:15:24;;;;;;;0.43;0.43;;;10.40;99.90;;;;;;5064338;28;20025;-71
2021/10/18 06:17:50;;;;;;;0.17;0.17;;;10.50;99.90;;;;;;5057244;28;20162;-72
2021/10/18 06:20:16;;;;;;;0.17;0.17;;;10.50;99.90;;;;;;5067271;28;20043;-70
2021/10/18 06:22:41;;;;;;;0.25;0.25;;;10.60;99.90;;;;;;5068887;28;20129;-71
2021/10/18 06:25:07;;;;;;;0.20;0.20;;;10.60;99.90;;;;;;5077257;28;20052;-70
2021/10/18 06:27:33;;;;;;;0.00;0.00;;;10.60;99.90;;;;;;5061615;28;20111;-70
2021/10/18 06:29:59;;;;;;;0.10;0.10;;;10.70;99.90;;;;;;5074983;28;20153;-70
2021/10/18 06:32:24;;;;;;;0.20;0.20;;;10.70;99.90;;;;;;5069071;28;20032;-71
2021/10/18 06:34:50;;;;;;;0.63;0.55;;;10.70;99.90;;;;;;5066500;28;20069;-72
2021/10/18 06:37:15;;;;;;;0.57;0.20;;;10.70;99.90;;;;;;5062433;28;20032;-72
2021/10/18 06:39:41;;;;;;;0.38;0.20;;;10.70;99.90;;;;;;5057004;28;20480;-71
2021/10/18 06:42:06;;;;;;;0.10;0.10;;;10.70;99.90;;;;;;5052141;28;20037;-71
2021/10/18 06:44:32;;;;;;;0.77;0.77;;;10.70;99.90;;;;;;5059257;28;20036;-70
2021/10/18 06:46:58;;;;;;;0.52;0.22;;;10.70;99.90;;;;;;5067092;28;20112;-71
2021/10/18 06:49:24;;;;;;;0.25;0.25;;;10.70;99.90;;;;;;5075512;28;20111;-71
2021/10/18 06:51:54;;;;;;;0.30;0.30;;;10.80;99.90;;;;;;5065682;28;20028;-71
2021/10/18 06:54:20;;;;;;;0.22;0.22;;;10.80;99.90;;;;;;5063603;28;20074;-71
2021/10/18 06:56:46;;;;;;;0.20;0.20;;;10.90;99.90;;;;;;5068780;28;20021;-71
2021/10/18 06:59:13;;;;;;;0.45;0.45;;;11.00;99.90;;;;;;5063686;28;20040;-71
2021/10/18 07:01:39;;;;;;;2.17;1.20;;;11.00;99.90;;;;;;5062071;28;20027;-70
2021/10/18 07:04:05;;;;;;;0.38;0.38;;;11.10;99.90;;;;;;5061894;28;20032;-70
2021/10/18 07:06:31;;;;;;;0.10;0.10;;;11.20;99.90;;;;;;5065227;28;20102;-71
2021/10/18 07:08:56;;;;;;;1.85;0.52;;;11.20;99.90;;;;;;5051344;28;20483;-71
2021/10/18 07:11:22;;;;;;;0.40;0.40;;;11.30;99.90;;;;;;5057022;28;20024;-69
2021/10/18 07:13:47;;;;;;;0.43;0.30;;;11.40;99.90;;;;;;5057608;28;20457;-71
2021/10/18 07:16:13;;;;;;;0.08;0.08;;;11.50;99.90;;;;;;5058726;28;20704;-70
2021/10/18 07:18:38;;;;;;;0.47;0.43;;;11.60;99.90;;;;;;5058425;28;20082;-73
2021/10/18 07:21:04;;;;;;;0.28;0.28;;;11.70;99.90;;;;;;5055779;28;20017;-72
2021/10/18 07:23:29;;;;;;;0.40;0.40;;;11.80;99.90;;;;;;5062249;28;20767;-69
2021/10/18 07:25:56;;;;;;;31.55;0.80;;;12.00;99.90;;;;;;5065157;28;20021;-72
2021/10/18 07:28:21;;;;;;;0.00;0.00;;;12.10;99.90;;;;;;5066123;28;20032;-71
2021/10/18 07:30:47;;;;;;;0.75;0.30;;;12.20;99.90;;;;;;5062726;28;20094;-72
2021/10/18 07:33:12;;;;;;;1.00;0.50;;;12.30;99.90;;;;;;5053719;28;20064;-71
2021/10/18 07:35:38;;;;;;;0.25;0.22;;;12.30;99.90;;;;;;5065758;28;20056;-70
2021/10/18 07:38:05;;;;;;;0.15;0.15;;;12.30;99.90;;;;;;5061727;28;20021;-70
2021/10/18 07:40:31;;;;;;;0.10;0.10;;;12.40;99.90;;;;;;5063293;28;20025;-69
2021/10/18 07:42:57;;;;;;;0.30;0.30;;;12.30;99.90;;;;;;5065667;28;20029;-70
2021/10/18 07:45:23;;;;;;;0.00;0.00;;;12.30;99.90;;;;;;5068462;28;21371;-70
2021/10/18 07:47:48;;;;;;;0.00;0.00;;;12.30;99.90;;;;;;5070512;28;20035;-69
2021/10/18 07:50:15;;;;;;;0.40;0.40;;;12.30;99.90;;;;;;5053947;28;20029;-71
2021/10/18 07:52:42;;;;;;;0.40;0.40;;;12.30;99.90;;;;;;5057716;28;20021;-70
2021/10/18 07:55:17;;;;;;;0.77;0.73;;;12.30;99.90;;;;;;5052267;28;20029;-69
2021/10/18 07:57:46;;;;;;;0.10;0.10;;;12.40;99.90;;;;;;5055334;28;20139;-70
2021/10/18 08:00:12;;;;;;;0.57;0.45;;;12.50;99.90;;;;;;5057230;28;20075;-70
2021/10/18 08:02:38;;;;;;;0.30;0.30;;;12.50;99.90;;;;;;5063553;28;20078;-70
2021/10/18 08:05:04;;;;;;;0.45;0.10;;;12.60;99.90;;;;;;5069711;28;20040;-70
2021/10/18 08:07:35;;;;;;;0.10;0.10;;;12.60;99.90;;;;;;5070646;28;20128;-70
2021/10/18 08:10:04;;;;;;;0.10;0.10;;;12.70;99.90;;;;;;5070341;28;20527;-71
2021/10/18 08:12:29;;;;;;;0.32;0.32;;;12.80;99.90;;;;;;5070364;28;20188;-69
2021/10/18 08:14:55;;;;;;;0.32;0.32;;;12.80;99.90;;;;;;5065075;28;20032;-69
2021/10/18 08:17:20;;;;;;;0.00;0.00;;;12.90;99.90;;;;;;5070596;28;20025;-70
2021/10/18 08:19:46;;;;;;;0.20;0.20;;;12.90;99.00;;;;;;5070002;28;20021;-70
2021/10/18 08:22:11;;;;;;;0.22;0.22;;;13.00;98.30;;;;;;5069969;28;20039;-70
2021/10/18 08:24:37;;;;;;;0.45;0.45;;;13.10;98.70;;;;;;5065401;28;20415;-70
2021/10/18 08:27:02;;;;;;;0.00;0.00;;;13.10;98.60;;;;;;5062279;28;20101;-70
2021/10/18 08:29:28;;;;;;;0.90;0.70;;;13.10;98.50;;;;;;5069377;28;20520;-70
2021/10/18 08:31:53;;;;;;;0.20;0.20;;;13.10;98.60;;;;;;5068935;28;20024;-70
2021/10/18 08:34:19;;;;;;;1.08;0.28;;;13.20;98.00;;;;;;5069279;28;20027;-70
2021/10/18 08:36:44;;;;;;;0.28;0.28;;;13.20;97.30;;;;;;5069392;28;20028;-70
2021/10/18 08:41:46;;;;;;;0.10;0.10;;;13.20;97.60;;;;;;5069238;28;20021;-70
2021/10/18 08:44:17;;;;;;;0.13;0.13;;;13.30;97.70;;;;;;5061860;28;20044;-71
2021/10/18 08:46:58;;;;;;;0.03;0.03;;;13.30;97.40;;;;;;5069114;28;20033;-69
2021/10/18 08:49:24;;;;;;;0.98;0.30;;;13.30;96.30;;;;;;5069599;28;20035;-70
2021/10/18 08:51:49;;;;;;;0.38;0.38;;;13.40;96.30;;;;;;5068977;28;20399;-70
2021/10/18 08:54:16;;;;;;;0.10;0.10;;;13.40;96.40;;;;;;5056993;28;20032;-70
2021/10/18 08:56:42;;;;;;;0.50;0.50;;;13.40;96.60;;;;;;5067348;28;20398;-70
2021/10/18 08:59:08;;;;;;;0.45;0.45;;;13.40;95.90;;;;;;5068937;28;20036;-70
2021/10/18 09:01:41;;;;;;;0.77;0.47;;;13.50;96.00;;;;;;5068912;28;20030;-70
2021/10/18 09:04:27;;;;;;;0.43;0.43;;;13.50;96.40;;;;;;5067108;28;20036;-71
2021/10/18 09:06:58;;;;;;;0.10;0.10;;;13.50;95.90;;;;;;5069059;28;20045;-70
2021/10/18 09:09:26;;;;;;;0.20;0.20;;;13.50;95.30;;;;;;5069133;28;20028;-71
2021/10/18 09:11:58;;;;;;;0.43;0.40;;;13.60;95.50;;;;;;5068832;28;20544;-70
2021/10/18 09:14:24;;;;;;;0.10;0.10;;;13.60;94.50;;;;;;5066216;28;20035;-70
2021/10/18 09:16:49;;;;;;;0.65;0.65;;;13.70;94.10;;;;;;5058845;28;20016;-70
2021/10/18 09:19:23;;;;;;;1.55;1.00;;;13.80;94.30;;;;;;5067988;28;20028;-70
2021/10/18 09:21:56;;;;;;;0.20;0.20;;;13.90;92.90;;;;;;5068378;28;20013;-70
2021/10/18 09:24:33;;;;;;;0.20;0.20;;;14.00;93.20;;;;;;5066563;28;20044;-70
2021/10/18 09:27:02;;;;;;;0.05;0.05;;;14.10;92.70;;;;;;5062306;28;20501;-71
2021/10/18 09:29:49;;;;;;;0.30;0.30;;;14.10;92.40;;;;;;5068975;28;20032;-70
2021/10/18 09:32:27;;;;;;;0.00;0.00;;;14.20;91.90;;;;;;5063427;28;20037;-73
2021/10/18 09:35:11;;;;;;;2.42;0.93;;;14.30;91.80;;;;;;5063686;28;20111;-70
2021/10/18 09:37:41;;;;;;;0.10;0.10;;;14.40;91.60;;;;;;5057118;28;20046;-70
2021/10/18 09:40:09;;;;;;;1.85;1.40;;;14.50;92.20;;;;;;5060362;28;20040;-70
2021/10/18 09:42:34;;;;;;;1.15;0.65;;;14.60;91.70;;;;;;5068232;28;20023;-70
2021/10/18 09:48:17;;;;;;;0.10;0.10;;;14.60;90.90;;;;;;5059124;28;20060;-70
2021/10/18 10:52:40;;;;;;;0.38;0.32;;;16.50;79.40;;;;;;5055972;28;20093;-69
2021/10/18 10:55:28;;;;;;;0.20;0.20;;;16.60;76.10;;;;;;5066996;28;20475;-69
2021/10/18 10:57:57;;;;;;;0.10;0.10;;;16.60;76.10;;;;;;5056648;28;20028;-69
2021/10/18 11:00:43;;;;;;;1.98;1.02;;;16.60;75.90;;;;;;5053494;28;20025;-70
2021/10/18 11:03:23;;;;;;;0.28;0.17;;;;;;;;;;5057880;28;20459;-68
2021/10/18 11:06:06;;;;;;;0.20;0.20;;;17.00;74.30;;;;;;5069582;28;20032;-68
2021/10/18 11:08:38;;;;;;;0.55;0.20;;;17.20;73.70;;;;;;5059322;28;20021;-68
2021/10/18 11:11:20;;;;;;;27.80;1.00;;;17.30;71.10;;;;;;5063977;28;20029;-68
2021/10/18 11:13:59;;;;;;;0.40;0.40;;;17.50;71.70;;;;;;5059920;28;20045;-68
2021/10/18 11:16:29;;;;;;;0.43;0.43;;;17.70;71.30;;;;;;5054854;28;20360;-68
2021/10/18 11:18:57;;;;;;;0.20;0.20;;;17.80;69.60;;;;;;5062005;28;20036;-68
2021/10/18 11:21:27;;;;;;;0.35;0.35;;;17.90;70.50;;;;;;5068098;28;20032;-68
2021/10/18 11:24:04;;;;;;;0.00;0.00;;;18.10;68.90;;;;;;5063011;28;20048;-69
2021/10/18 11:26:34;;;;;;;0.10;0.10;;;18.30;70.80;;;;;;5073502;28;20177;-68
2021/10/18 11:29:01;;;;;;;1.85;0.30;;;18.60;68.30;;;;;;5071466;28;20043;-68
2021/10/18 11:31:32;;;;;;;2.47;1.27;;;18.80;65.00;;;;;;5071502;28;20110;-68
2021/10/18 11:34:02;;;;;;;0.85;0.77;;;18.80;65.40;;;;;;5061411;28;20051;-67
2021/10/18 11:36:27;;;;;;;0.50;0.50;;;18.90;63.60;;;;;;5056129;28;20041;-68
2021/10/18 11:39:13;;;;;;;0.20;0.20;;;18.90;63.20;;;;;;5060313;28;20044;-67
2021/10/18 11:42:05;;;;;;;0.00;0.00;;;18.80;63.70;;;;;;5063516;28;20021;-67
2021/10/18 11:44:53;;;;;;;0.25;0.25;;;18.70;63.60;;;;;;5058460;28;20758;-68
2021/10/18 11:47:30;;;;;;;0.00;0.00;;;18.60;64.70;;;;;;5078437;28;20132;-67
2021/10/18 11:50:15;;;;;;;0.30;0.30;;;18.50;65.30;;;;;;5067272;28;20037;-68
2021/10/18 11:52:58;;;;;;;0.10;0.10;;;18.50;64.60;;;;;;5065373;28;20037;-68
2021/10/18 11:55:31;;;;;;;0.50;0.50;;;18.40;65.10;;;;;;5059309;28;20032;-68
2021/10/18 11:58:04;;;;;;;0.40;0.40;;;18.50;63.20;;;;;;5070013;28;20360;-68
2021/10/18 12:00:32;;;;;;;0.17;0.17;;;18.60;63.70;;;;;;5061792;28;20443;-69
2021/10/18 12:03:01;;;;;;;0.10;0.10;;;18.50;64.90;;;;;;5061218;28;20037;-69
2021/10/18 12:05:35;;;;;;;0.30;0.30;;;18.50;63.00;;;;;;5063335;28;20025;-68
2021/10/18 12:08:00;;;;;;;0.35;0.35;;;18.40;62.80;;;;;;5059074;28;20029;-68
2021/10/18 12:10:28;;;;;;;2.65;0.65;;;18.40;64.80;;;;;;5067433;28;20056;-69
2021/10/18 12:13:07;;;;;;;0.10;0.10;;;18.40;62.20;;;;;;5069185;28;20032;-68
2021/10/18 12:15:48;;;;;;;0.57;0.55;;;18.30;64.80;;;;;;5058269;28;20091;-69
2021/10/18 12:18:16;;;;;;;0.65;0.30;;;18.30;64.60;;;;;;5066446;28;20391;-68
2021/10/18 12:20:48;;;;;;;0.32;0.32;;;18.30;64.10;;;;;;5063413;28;20376;-68
2021/10/18 12:23:29;;;;;;;0.52;0.45;;;18.30;62.40;;;;;;5084399;28;20332;-69
2021/10/18 12:26:17;;;;;;;0.15;0.15;;;18.30;62.60;;;;;;5070864;28;20103;-69
2021/10/18 12:29:06;;;;;;;0.38;0.38;;;18.30;62.80;;;;;;5065925;28;20028;-69
2021/10/18 12:31:39;;;;;;;0.00;0.00;;;18.30;61.00;;;;;;5061494;28;20035;-68
2021/10/18 12:34:18;;;;;;;0.90;0.20;;;18.30;59.50;;;;;;5068560;28;20020;-67
2021/10/18 12:36:50;;;;;;;0.10;0.10;;;18.30;59.10;;;;;;5068712;28;20020;-68
2021/10/18 12:39:48;;;;;;;0.40;0.20;;;18.30;59.60;;;;;;5064777;28;20033;-69
2021/10/18 12:42:20;;;;;;;0.85;0.45;;;18.30;60.30;;;;;;5069048;28;20186;-69
2021/10/18 12:44:46;;;;;;;;;;;18.30;60.20;;;;;;5069997;28;20112;-69
2021/10/18 12:47:20;;;;;;;0.43;0.43;;;18.40;61.00;;;;;;5068547;28;19919;-68
2021/10/18 12:49:51;;;;;;;0.20;0.20;;;18.40;62.40;;;;;;5068144;28;20134;-69
2021/10/18 12:52:27;;;;;;;;;;;18.50;61.90;;;;;;5058317;28;20044;-69
2021/10/18 12:54:53;;;;;;;0.15;0.15;;;18.60;61.80;;;;;;5067559;28;19915;-68
2021/10/18 12:57:24;;;;;;;0.63;0.63;;;18.80;60.70;;;;;;5064645;28;20017;-68
2021/10/18 13:00:01;;;;;;;0.73;0.73;;;18.80;61.30;;;;;;5063555;28;20025;-69
2021/10/18 13:02:29;;;;;;;0.10;0.10;;;18.90;62.60;;;;;;5068480;28;20017;-68
2021/10/18 13:04:59;;;;;;;6.03;0.40;;;19.00;62.30;;;;;;5069175;28;20024;-69
2021/10/18 13:07:25;;;;;;;0.10;0.10;;;19.00;61.30;;;;;;5059360;28;20041;-68
2021/10/18 13:09:50;;;;;;;0.15;0.15;;;19.00;60.80;;;;;;5063511;28;20107;-68
2021/10/18 13:12:16;;;;;;;0.45;0.45;;;19.10;61.00;;;;;;5054830;28;20422;-68
2021/10/18 13:14:42;;;;;;;0.08;0.08;;;19.10;60.30;;;;;;5055309;28;20039;-68
2021/10/18 13:17:07;;;;;;;1.08;0.50;;;19.30;59.80;;;;;;5063261;28;20035;-69
2021/10/18 13:19:33;;;;;;;0.85;0.47;;;19.30;59.80;;;;;;5068526;28;20048;-68
2021/10/18 13:21:58;;;;;;;0.20;0.17;;;19.30;59.60;;;;;;5065695;28;20048;-68
2021/10/18 13:24:24;;;;;;;0.30;0.30;;;19.30;60.70;;;;;;5057457;28;20109;-69
2021/10/18 13:26:49;;;;;;;0.32;0.30;;;19.40;59.90;;;;;;5063760;28;20036;-68
2021/10/18 13:29:15;;;;;;;0.03;0.03;;;19.40;60.50;;;;;;5063384;28;20040;-69
2021/10/18 13:31:40;;;;;;;0.10;0.10;;;19.30;60.30;;;;;;5063858;28;20032;-69
2021/10/18 13:34:06;;;;;;;0.65;0.45;;;19.30;61.20;;;;;;5068566;28;20032;-68
2021/10/18 13:36:31;;;;;;;1.08;0.57;;;19.30;61.70;;;;;;5041195;28;20029;-68
2021/10/18 13:38:57;;;;;;;0.20;0.20;;;19.30;61.10;;;;;;5067294;28;20027;-69
2021/10/18 13:41:23;;;;;;;3.75;0.35;;;19.30;63.20;;;;;;5069194;28;20025;-69
2021/10/18 13:43:48;;;;;;;0.82;0.50;;;19.20;60.90;;;;;;5074129;28;20078;-69
2021/10/18 13:46:14;;;;;;;0.10;0.10;;;19.20;60.20;;;;;;5060596;28;20086;-68
2021/10/18 13:48:39;;;;;;;1.20;0.45;;;19.20;60.50;;;;;;5076100;28;20044;-69
2021/10/18 13:51:05;;;;;;;0.00;0.00;;;19.10;60.80;;;;;;5066327;28;20032;-68
2021/10/18 13:53:31;;;;;;;0.20;0.20;;;19.10;61.00;;;;;;5062251;28;20035;-69
2021/10/18 13:55:56;;;;;;;0.20;0.20;;;19.00;61.60;;;;;;5051139;28;20384;-69
2021/10/18 13:58:22;;;;;;;3.53;0.47;;;19.00;60.30;;;;;;5059514;28;20021;-68
2021/10/18 14:00:48;;;;;;;0.10;0.10;;;18.90;61.10;;;;;;5066269;28;20111;-69
2021/10/18 14:03:13;;;;;;;0.10;0.10;;;18.70;60.60;;;;;;5071081;28;20064;-68